Flight Track Log - Related Links

Times and Time Zones

All times are in EDT time to prevent confusion due to time zone crossing. See the KAP169 flight status page for this flight to view local times or setup timezone preferences in your user account.

Time Position Orientation Groundspeed Altitude Reporting Facility
EDT Latitude Longitude Course Direction KTS MPH feet Rate Location/Type
Mon 18:34:01 42.3833 -71.0000 340° North 104 120 500  Level KA90
Mon 18:35:01 42.4167 -71.0167 340° North 117 135 1,200 632 Climbing KA90
Mon 18:35:55 42.4500 -71.0167 360° North 118 136 1,700 526 Climbing KA90
Mon 18:36:55 42.4667 -71.0167 360° North 117 135 2,200 524 Climbing KA90
Mon 18:38:01 42.5167 -71.0167 360° North 120 138 2,800 522 Climbing KA90
Mon 18:39:13 42.5500 -71.0167 360° North 122 140 3,400 565 Climbing KA90
Mon 18:40:19 42.5833 -71.0167 360° North 120 138 4,100 645 Climbing KA90
Mon 18:41:14 42.6167 -71.0000 20° North 122 140 4,700 583 Climbing KA90
Mon 18:42:02 42.6500 -71.0000 360° North 123 142 5,100 584 Climbing KA90
Mon 18:43:07 42.6833 -70.9833 20° North 121 139 5,800 595 Climbing KA90
Mon 18:44:13 42.7167 -70.9667 20° North 118 136 6,400 524 Climbing KA90
Mon 18:45:13 42.7500 -70.9500 20° North 126 145 6,900 550 Climbing KA90
Mon 18:46:13 42.7667 -70.9167 56° Northeast 130 150 7,500 595 Climbing KA90
Mon 18:47:24 42.8000 -70.8667 48° Northeast 128 147 8,200 584 Climbing KA90
Mon 18:48:06 42.8167 -70.8500 36° Northeast 125 144 8,600 440 Climbing KA90
Mon 18:49:13 42.8500 -70.8167 36° Northeast 128 147 9,000 198 Climbing KA90
Mon 18:50:07 42.8667 -70.7833 56° Northeast 162 186 9,000  Level KA90
Mon 18:51:18 42.9167 -70.7167 44° Northeast 169 194 9,000  Level KA90
Mon 18:52:25 42.9500 -70.6667 48° Northeast 175 201 9,000  Level KA90
Mon 18:53:07 42.9833 -70.6333 36° Northeast 177 204 9,000  Level KA90
Mon 18:55:00 43.0359 -70.5604 45° Northeast  Level Estimated
Mon 19:02:00 43.2308 -70.2881 45° Northeast  Level Estimated
Mon 19:03:00 43.2586 -70.2491 46° Northeast  Level Estimated
Mon 19:04:00 43.2864 -70.2100 46° Northeast  Level Estimated
Mon 19:05:00 43.3141 -70.1709 46° Northeast  Level Estimated
Mon 19:06:00 43.3419 -70.1318 46° Northeast  Level Estimated
Mon 19:07:00 43.3696 -70.0926 46° Northeast  Level Estimated
Mon 19:08:00 43.3973 -70.0534 46° Northeast  Level Estimated
Mon 19:09:00 43.4250 -70.0142 46° Northeast  Level Estimated
Mon 19:10:00 43.4527 -69.9749 46° Northeast  Level Estimated
Mon 19:11:00 43.4804 -69.9355 46° Northeast  Level Estimated
Mon 19:12:00 43.5081 -69.8962 46° Northeast  Level Estimated
Mon 19:13:00 43.5357 -69.8568 46° Northeast  Level Estimated
Mon 19:14:00 43.5634 -69.8174 46° Northeast  Level Estimated
Mon 19:15:00 43.5910 -69.7779 46° Northeast  Level Estimated
Mon 19:16:00 43.6186 -69.7384 46° Northeast  Level Estimated
Mon 19:17:00 43.6462 -69.6989 46° Northeast  Level Estimated
Mon 19:18:00 43.6738 -69.6593 46° Northeast  Level Estimated
Mon 19:19:00 43.7014 -69.6197 46° Northeast  Level Estimated
Mon 19:20:00 43.7290 -69.5800 46° Northeast  Level Estimated
Mon 19:21:00 43.7565 -69.5404 46° Northeast  Level Estimated
Mon 19:22:00 43.7840 -69.5006 46° Northeast  Level Estimated
Mon 19:23:00 43.8116 -69.4609 46° Northeast  Level Estimated
Mon 19:24:00 43.8391 -69.4211 46° Northeast  Level Estimated
Mon 19:25:00 43.8666 -69.3813 46° Northeast  Level Estimated
Mon 19:26:00 43.8940 -69.3414 46° Northeast  Level Estimated

Login

Don't have an account? Register now (free) for customized features, flight alerts, and more!